createdAt,value
2022-12-28T00:00:10.042Z,3.97
2022-12-28T00:01:09.992Z,3.94
2022-12-28T00:02:10.036Z,3.97
2022-12-28T00:03:10.021Z,3.96
2022-12-28T00:04:09.986Z,3.94
2022-12-28T00:05:09.956Z,3.96
2022-12-28T00:06:09.940Z,3.97
2022-12-28T00:07:09.938Z,3.96
2022-12-28T00:08:09.941Z,3.96
2022-12-28T00:09:09.913Z,3.94
2022-12-28T00:10:09.897Z,4.00
2022-12-28T00:11:13.382Z,4.00
2022-12-28T00:12:09.882Z,4.00
2022-12-28T00:13:09.867Z,4.01
2022-12-28T00:14:09.893Z,4.03
2022-12-28T00:15:09.849Z,4.03
2022-12-28T00:16:09.867Z,4.04
2022-12-28T00:17:09.832Z,4.04
2022-12-28T00:18:09.812Z,4.08
2022-12-28T00:19:09.813Z,4.10
2022-12-28T00:20:09.792Z,4.10
2022-12-28T00:21:09.775Z,4.12
2022-12-28T00:22:09.763Z,4.10
2022-12-28T00:23:09.749Z,4.16
2022-12-28T00:24:09.774Z,4.18
2022-12-28T00:25:09.747Z,4.16
2022-12-28T00:26:09.731Z,4.18
2022-12-28T00:27:09.731Z,4.21
2022-12-28T00:28:09.703Z,4.18
2022-12-28T00:29:09.707Z,4.18
2022-12-28T00:30:09.683Z,4.21
2022-12-28T00:31:09.775Z,4.21
2022-12-28T00:32:09.667Z,4.21
2022-12-28T00:33:09.642Z,4.22
2022-12-28T00:34:09.680Z,4.22
2022-12-28T00:35:09.636Z,4.21
2022-12-28T00:36:09.629Z,4.24
2022-12-28T00:37:13.097Z,4.25
2022-12-28T00:38:09.600Z,4.21
2022-12-28T00:39:09.605Z,4.24
2022-12-28T00:40:09.571Z,4.22
2022-12-28T00:41:09.553Z,4.25
2022-12-28T00:42:09.568Z,4.22
2022-12-28T00:43:09.545Z,4.26
2022-12-28T00:44:09.530Z,4.25
2022-12-28T00:45:09.521Z,4.24
2022-12-28T00:46:09.553Z,4.28
2022-12-28T00:47:09.516Z,4.26
2022-12-28T00:48:09.505Z,4.26
2022-12-28T00:49:09.499Z,4.26
2022-12-28T00:50:09.476Z,4.26
2022-12-28T00:51:09.458Z,4.34
2022-12-28T00:52:09.481Z,4.32
2022-12-28T00:53:09.440Z,4.32
2022-12-28T00:54:09.466Z,4.33
2022-12-28T00:55:09.423Z,4.33
2022-12-28T00:56:09.411Z,4.32
2022-12-28T00:57:09.379Z,4.34
2022-12-28T00:58:09.374Z,4.36
2022-12-28T00:59:09.365Z,4.33
2022-12-28T01:00:09.359Z,4.32
2022-12-28T01:01:09.446Z,4.34
2022-12-28T01:02:09.481Z,4.37
2022-12-28T01:03:09.417Z,4.33
2022-12-28T01:04:09.321Z,4.34
2022-12-28T01:05:09.336Z,4.39
2022-12-28T01:06:09.296Z,4.36
2022-12-28T01:07:09.280Z,4.36
2022-12-28T01:08:09.275Z,4.36
2022-12-28T01:09:09.264Z,4.37
2022-12-28T01:10:09.283Z,4.39
2022-12-28T01:11:09.227Z,4.34
2022-12-28T01:12:09.226Z,4.39
2022-12-28T01:13:09.232Z,4.36
2022-12-28T01:14:09.214Z,4.33
2022-12-28T01:15:09.200Z,4.36
2022-12-28T01:16:09.206Z,4.37
2022-12-28T01:17:09.197Z,4.42
2022-12-28T01:18:09.175Z,4.39
2022-12-28T01:19:09.186Z,4.36
2022-12-28T01:20:09.164Z,4.39
2022-12-28T01:21:09.124Z,4.39
2022-12-28T01:22:09.121Z,4.39
2022-12-28T01:23:09.117Z,4.37
2022-12-28T01:24:09.099Z,4.40
2022-12-28T01:25:09.085Z,4.36
2022-12-28T01:26:09.098Z,4.37
2022-12-28T01:27:09.071Z,4.37
2022-12-28T01:28:09.049Z,4.37
2022-12-28T01:29:09.060Z,4.37
2022-12-28T01:30:09.046Z,4.37
2022-12-28T01:31:09.036Z,4.33
2022-12-28T01:32:09.079Z,4.36
2022-12-28T01:33:09.000Z,4.36
2022-12-28T01:34:09.013Z,4.36
2022-12-28T01:35:08.993Z,4.34
2022-12-28T01:36:09.016Z,4.32
2022-12-28T01:37:08.963Z,4.32
2022-12-28T01:38:08.941Z,4.34
2022-12-28T01:39:08.946Z,4.32
2022-12-28T01:40:08.944Z,4.26
2022-12-28T01:41:08.921Z,4.29
2022-12-28T01:42:08.917Z,4.28
2022-12-28T01:43:08.891Z,4.28
2022-12-28T01:44:08.885Z,4.28
2022-12-28T01:45:08.880Z,4.29
2022-12-28T01:46:08.903Z,4.26
2022-12-28T01:47:08.844Z,4.22
2022-12-28T01:48:08.828Z,4.24
2022-12-28T01:49:08.825Z,4.24
2022-12-28T01:50:08.837Z,4.25
2022-12-28T01:51:08.830Z,4.25
2022-12-28T01:52:08.798Z,4.24
2022-12-28T01:53:08.792Z,4.21
2022-12-28T01:54:08.774Z,4.19
2022-12-28T01:55:09.240Z,4.14
2022-12-28T01:56:08.744Z,4.18
2022-12-28T01:57:08.729Z,4.15
2022-12-28T01:58:08.744Z,4.14
2022-12-28T01:59:08.713Z,4.12
2022-12-28T02:00:08.720Z,4.12
2022-12-28T02:01:08.765Z,4.08
2022-12-28T02:02:08.944Z,4.06
2022-12-28T02:03:08.727Z,4.07
2022-12-28T02:04:08.671Z,4.06
2022-12-28T02:05:08.648Z,4.03
2022-12-28T02:06:08.685Z,4.03
2022-12-28T02:07:08.629Z,4.00
2022-12-28T02:08:08.629Z,4.00
2022-12-28T02:09:08.603Z,3.98
2022-12-28T02:10:42.447Z,4.00
2022-12-28T02:11:08.606Z,3.97
2022-12-28T02:12:08.596Z,3.97
2022-12-28T02:13:08.611Z,3.96
2022-12-28T02:15:32.710Z,3.98
2022-12-28T02:16:19.668Z,3.97
2022-12-28T02:17:19.624Z,3.92
2022-12-28T02:18:19.601Z,3.90
2022-12-28T02:19:19.580Z,3.92
2022-12-28T02:20:19.587Z,3.97
2022-12-28T02:21:19.579Z,3.90
2022-12-28T02:22:19.577Z,3.90
2022-12-28T02:23:19.535Z,3.88
2022-12-28T02:24:19.529Z,3.90
2022-12-28T02:25:19.535Z,3.90
2022-12-28T02:26:19.523Z,3.89
2022-12-28T02:27:19.525Z,3.83
2022-12-28T02:28:19.490Z,3.86
2022-12-28T02:29:19.483Z,3.85
2022-12-28T02:30:19.475Z,3.85
2022-12-28T02:31:19.469Z,3.82
2022-12-28T02:32:19.460Z,3.83
2022-12-28T02:33:19.454Z,3.83
2022-12-28T02:34:19.439Z,3.83
2022-12-28T02:35:19.420Z,3.82
2022-12-28T02:36:19.400Z,3.80
2022-12-28T02:37:19.400Z,3.79
2022-12-28T02:38:19.391Z,3.78
2022-12-28T02:39:19.362Z,3.76
2022-12-28T02:40:19.371Z,3.79
2022-12-28T02:41:19.354Z,3.76
2022-12-28T02:42:19.358Z,3.76
2022-12-28T02:43:19.331Z,3.83
2022-12-28T02:44:19.321Z,3.76
2022-12-28T02:45:19.307Z,3.79
2022-12-28T02:46:19.310Z,3.78
2022-12-28T02:47:19.277Z,3.79
2022-12-28T02:48:19.292Z,3.78
2022-12-28T02:49:19.279Z,3.78
2022-12-28T02:50:19.281Z,3.76
2022-12-28T02:51:19.281Z,3.76
2022-12-28T02:52:19.230Z,3.76
2022-12-28T02:53:19.227Z,3.75
2022-12-28T02:54:19.234Z,3.75
2022-12-28T02:55:19.216Z,3.75
2022-12-28T02:56:19.181Z,3.72
2022-12-28T02:57:19.184Z,3.70
2022-12-28T02:58:19.193Z,3.70
2022-12-28T02:59:19.153Z,3.67
2022-12-28T03:00:19.146Z,3.68
2022-12-28T03:01:19.231Z,3.67
2022-12-28T03:02:19.326Z,3.64
2022-12-28T03:03:19.175Z,3.62
2022-12-28T03:04:19.098Z,3.60
2022-12-28T03:05:19.085Z,3.61
2022-12-28T03:06:19.746Z,3.60
2022-12-28T03:07:19.073Z,3.58
2022-12-28T03:08:19.083Z,3.58
2022-12-28T03:09:19.039Z,3.60
2022-12-28T03:10:19.033Z,3.57
2022-12-28T03:11:19.046Z,3.52
2022-12-28T03:12:19.012Z,3.52
2022-12-28T03:13:19.003Z,3.52
2022-12-28T03:14:18.992Z,3.50
2022-12-28T03:15:18.971Z,3.46
2022-12-28T03:16:19.004Z,3.46
2022-12-28T03:17:18.966Z,3.49
2022-12-28T03:18:18.981Z,3.44
2022-12-28T03:19:18.961Z,3.46
2022-12-28T03:20:18.939Z,3.44
2022-12-28T03:21:18.918Z,3.42
2022-12-28T03:22:18.914Z,3.43
2022-12-28T03:23:18.891Z,3.47
2022-12-28T03:24:18.889Z,3.43
2022-12-28T03:25:18.867Z,3.43
2022-12-28T03:26:18.871Z,3.40
2022-12-28T03:27:18.921Z,3.42
2022-12-28T03:28:18.850Z,3.40
2022-12-28T03:29:18.849Z,3.40
2022-12-28T03:30:18.830Z,3.42
2022-12-28T03:31:18.834Z,3.42
2022-12-28T03:32:18.799Z,3.36
2022-12-28T03:33:18.796Z,3.40
2022-12-28T03:34:18.799Z,3.40
2022-12-28T03:35:18.779Z,3.40
2022-12-28T03:36:18.750Z,3.40
2022-12-28T03:37:18.781Z,3.40
2022-12-28T03:38:18.744Z,3.36
2022-12-28T03:39:18.759Z,3.36
2022-12-28T03:40:18.708Z,3.39
2022-12-28T03:41:18.704Z,3.39
2022-12-28T03:42:18.711Z,3.34
2022-12-28T03:43:18.725Z,3.34
2022-12-28T03:44:18.682Z,3.36
2022-12-28T03:45:45.558Z,3.36
2022-12-28T03:46:18.710Z,3.36
2022-12-28T03:47:18.642Z,3.36
2022-12-28T03:48:18.654Z,3.36
2022-12-28T03:49:18.633Z,3.39
2022-12-28T03:50:18.595Z,3.36
2022-12-28T03:51:18.590Z,3.34
2022-12-28T03:52:18.580Z,3.34
2022-12-28T03:53:18.580Z,3.31
2022-12-28T03:54:18.565Z,3.34
2022-12-28T03:55:18.560Z,3.30
2022-12-28T03:56:18.527Z,3.31
2022-12-28T03:57:18.539Z,3.30
2022-12-28T03:58:18.509Z,3.34
2022-12-28T03:59:18.527Z,3.30
2022-12-28T04:00:18.505Z,3.33
2022-12-28T04:01:18.615Z,3.33
2022-12-28T04:02:18.709Z,3.31
2022-12-28T04:03:18.509Z,3.30
2022-12-28T04:04:18.510Z,3.30
2022-12-28T04:05:18.440Z,3.33
2022-12-28T04:06:18.424Z,3.28
2022-12-28T04:07:18.421Z,3.31
2022-12-28T04:08:18.410Z,3.27
2022-12-28T04:09:18.400Z,3.25
2022-12-28T04:10:18.422Z,3.27
2022-12-28T04:11:18.376Z,3.27
2022-12-28T04:12:18.360Z,3.28
2022-12-28T04:13:18.359Z,3.27
2022-12-28T04:14:18.347Z,3.25
2022-12-28T04:15:18.348Z,3.23
2022-12-28T04:16:18.385Z,3.27
2022-12-28T04:17:18.317Z,3.25
2022-12-28T04:18:18.293Z,3.25
2022-12-28T04:19:18.293Z,3.23
2022-12-28T04:20:18.285Z,3.23
2022-12-28T04:21:18.282Z,3.25
2022-12-28T04:22:18.252Z,3.24
2022-12-28T04:23:18.256Z,3.24
2022-12-28T04:24:18.231Z,3.25
2022-12-28T04:25:18.244Z,3.23
2022-12-28T04:26:18.249Z,3.21
2022-12-28T04:27:18.218Z,3.23
2022-12-28T04:28:18.194Z,3.23
2022-12-28T04:29:18.177Z,3.21
2022-12-28T04:30:18.183Z,3.20
2022-12-28T04:31:18.207Z,3.21
2022-12-28T04:32:18.157Z,3.21
2022-12-28T04:33:18.149Z,3.20
2022-12-28T04:34:18.123Z,3.20
2022-12-28T04:35:18.131Z,3.20
2022-12-28T04:36:18.111Z,3.20
2022-12-28T04:37:18.121Z,3.20
2022-12-28T04:38:18.088Z,3.21
2022-12-28T04:39:18.075Z,3.20
2022-12-28T04:40:18.069Z,3.16
2022-12-28T04:41:18.048Z,3.20
2022-12-28T04:42:18.044Z,3.18
2022-12-28T04:43:18.040Z,3.21
2022-12-28T04:44:18.024Z,3.20
2022-12-28T04:45:21.903Z,3.23
2022-12-28T04:46:18.045Z,3.21
2022-12-28T04:47:17.988Z,3.24
2022-12-28T04:48:17.980Z,3.23
2022-12-28T04:49:17.992Z,3.25
2022-12-28T04:50:17.977Z,3.25
2022-12-28T04:51:17.951Z,3.23
2022-12-28T04:52:17.930Z,3.27
2022-12-28T04:53:17.933Z,3.25
2022-12-28T04:54:17.905Z,3.24
2022-12-28T04:55:32.173Z,3.25
2022-12-28T04:56:17.940Z,3.27
2022-12-28T04:57:17.882Z,3.27
2022-12-28T04:58:17.868Z,3.30
2022-12-28T04:59:17.858Z,3.28
2022-12-28T05:00:17.857Z,3.27
2022-12-28T05:01:18.004Z,3.30
2022-12-28T05:02:17.971Z,3.25
2022-12-28T05:03:17.820Z,3.30
2022-12-28T05:04:17.797Z,3.27
2022-12-28T05:05:17.806Z,3.27
2022-12-28T05:06:17.802Z,3.30
2022-12-28T05:07:17.775Z,3.28
2022-12-28T05:08:17.753Z,3.28
2022-12-28T05:09:17.751Z,3.30
2022-12-28T05:10:17.737Z,3.27
2022-12-28T05:11:17.745Z,3.25
2022-12-28T05:12:17.730Z,3.30
2022-12-28T05:13:17.717Z,3.31
2022-12-28T05:14:17.691Z,3.27
2022-12-28T05:15:17.688Z,3.25
2022-12-28T05:16:17.718Z,3.27
2022-12-28T05:17:17.670Z,3.30
2022-12-28T05:18:17.658Z,3.33
2022-12-28T05:19:17.760Z,3.31
2022-12-28T05:20:17.665Z,3.33
2022-12-28T05:21:17.643Z,3.33
2022-12-28T05:22:17.631Z,3.34
2022-12-28T05:23:17.629Z,3.31
2022-12-28T05:24:17.629Z,3.31
2022-12-28T05:25:17.573Z,3.34
2022-12-28T05:26:17.571Z,3.36
2022-12-28T05:27:17.581Z,3.36
2022-12-28T05:28:17.556Z,3.42
2022-12-28T05:29:17.546Z,3.39
2022-12-28T05:30:17.534Z,3.42
2022-12-28T05:31:17.571Z,3.39
2022-12-28T05:32:17.513Z,3.42
2022-12-28T05:33:17.492Z,3.40
2022-12-28T05:34:17.479Z,3.43
2022-12-28T05:35:17.493Z,3.43
2022-12-28T05:36:17.476Z,3.43
2022-12-28T05:37:21.965Z,3.42
2022-12-28T05:38:17.429Z,3.40
2022-12-28T05:39:17.580Z,3.42
2022-12-28T05:40:17.424Z,3.43
2022-12-28T05:41:17.441Z,3.42
2022-12-28T05:42:17.413Z,3.42
2022-12-28T05:43:17.391Z,3.42
2022-12-28T05:44:17.401Z,3.43
2022-12-28T05:45:17.373Z,3.43
2022-12-28T05:46:17.461Z,3.43
2022-12-28T05:47:17.391Z,3.46
2022-12-28T05:48:17.326Z,3.46
2022-12-28T05:49:17.323Z,3.49
2022-12-28T05:50:17.325Z,3.47
2022-12-28T05:51:17.309Z,3.46
2022-12-28T05:52:17.302Z,3.46
2022-12-28T05:53:17.286Z,3.49
2022-12-28T05:54:17.261Z,3.47
2022-12-28T05:55:17.270Z,3.49
2022-12-28T05:56:17.248Z,3.50
2022-12-28T05:57:17.287Z,3.53
2022-12-28T05:58:17.239Z,3.50
2022-12-28T05:59:17.223Z,3.50
2022-12-28T06:00:17.223Z,3.54
2022-12-28T06:01:17.305Z,3.52
2022-12-28T06:02:21.624Z,3.54
2022-12-28T06:03:17.288Z,3.52
2022-12-28T06:04:17.200Z,3.54
2022-12-28T06:05:17.162Z,3.53
2022-12-28T06:06:17.168Z,3.57
2022-12-28T06:07:17.152Z,3.57
2022-12-28T06:08:21.058Z,3.57
2022-12-28T06:09:17.139Z,3.60
2022-12-28T06:10:17.121Z,3.58
2022-12-28T06:11:17.120Z,3.61
2022-12-28T06:12:17.114Z,3.62
2022-12-28T06:13:17.059Z,3.62
2022-12-28T06:14:17.064Z,3.65
2022-12-28T06:15:17.055Z,3.64
2022-12-28T06:16:17.045Z,3.65
2022-12-28T06:17:17.018Z,3.65
2022-12-28T06:18:17.018Z,3.68
2022-12-28T06:19:16.995Z,3.70
2022-12-28T06:20:16.989Z,3.71
2022-12-28T06:21:17.010Z,3.70
2022-12-28T06:22:17.002Z,3.72
2022-12-28T06:23:16.955Z,3.75
2022-12-28T06:24:16.958Z,3.71
2022-12-28T06:25:16.934Z,3.72
2022-12-28T06:26:16.944Z,3.72
2022-12-28T06:27:16.946Z,3.72
2022-12-28T06:28:16.916Z,3.78
2022-12-28T06:29:16.894Z,3.79
2022-12-28T06:30:16.867Z,3.80
2022-12-28T06:31:16.922Z,3.79
2022-12-28T06:32:16.866Z,3.80
2022-12-28T06:33:16.885Z,3.80
2022-12-28T06:34:16.852Z,3.80
2022-12-28T06:35:16.958Z,3.82
2022-12-28T06:36:20.225Z,3.82
2022-12-28T06:37:16.819Z,3.83
2022-12-28T06:38:16.810Z,3.86
2022-12-28T06:39:16.807Z,3.89
2022-12-28T06:40:16.780Z,3.89
2022-12-28T06:41:16.778Z,3.89
2022-12-28T06:42:16.745Z,3.89
2022-12-28T06:43:16.767Z,3.90
2022-12-28T06:44:16.744Z,3.89
2022-12-28T06:45:16.745Z,3.92
2022-12-28T06:46:16.744Z,3.92
2022-12-28T06:47:16.692Z,3.89
2022-12-28T06:48:16.692Z,3.88
2022-12-28T06:49:16.649Z,3.89
2022-12-28T06:50:16.617Z,3.88
2022-12-28T06:51:16.613Z,3.89
2022-12-28T06:52:16.594Z,3.89
2022-12-28T06:53:16.605Z,3.86
2022-12-28T06:54:16.612Z,3.85
2022-12-28T06:55:16.548Z,3.88
2022-12-28T06:56:16.545Z,3.80
2022-12-28T06:57:16.561Z,3.86
2022-12-28T06:58:16.532Z,3.85
2022-12-28T06:59:16.534Z,3.80
2022-12-28T07:00:16.541Z,3.80
2022-12-28T07:01:16.706Z,3.80
2022-12-28T07:02:16.649Z,3.79
2022-12-28T07:03:16.524Z,3.80
2022-12-28T07:04:16.529Z,3.79
2022-12-28T07:05:16.451Z,3.78
2022-12-28T07:06:16.503Z,3.79
2022-12-28T07:07:16.429Z,3.78
2022-12-28T07:08:16.440Z,3.76
2022-12-28T07:09:16.412Z,3.79
2022-12-28T07:10:16.404Z,3.80
2022-12-28T07:11:16.414Z,3.78
2022-12-28T07:12:16.384Z,3.78
2022-12-28T07:13:16.356Z,3.80
2022-12-28T07:14:16.368Z,3.78
2022-12-28T07:15:16.353Z,3.79
2022-12-28T07:16:16.385Z,3.78
2022-12-28T07:17:16.364Z,3.82
2022-12-28T07:18:16.328Z,3.82
2022-12-28T07:19:16.332Z,3.79
2022-12-28T07:20:16.299Z,3.83
2022-12-28T07:21:16.314Z,3.82
2022-12-28T07:22:16.286Z,3.85
2022-12-28T07:23:16.252Z,3.85
2022-12-28T07:24:16.255Z,3.86
2022-12-28T07:25:16.292Z,3.85
2022-12-28T07:26:16.236Z,3.86
2022-12-28T07:27:16.237Z,3.88
2022-12-28T07:28:16.220Z,3.88
2022-12-28T07:29:16.201Z,3.89
2022-12-28T07:30:16.183Z,3.90
2022-12-28T07:31:16.287Z,3.92
2022-12-28T07:32:16.166Z,3.94
2022-12-28T07:33:16.192Z,3.92
2022-12-28T07:34:16.354Z,3.92
2022-12-28T07:35:16.148Z,3.92
2022-12-28T07:36:16.106Z,3.94
2022-12-28T07:37:16.139Z,3.92
2022-12-28T07:38:21.076Z,3.96
2022-12-28T07:39:16.157Z,3.97
2022-12-28T07:40:16.147Z,3.96
2022-12-28T07:41:16.064Z,3.96
2022-12-28T07:42:16.086Z,3.98
2022-12-28T07:43:16.043Z,4.00
2022-12-28T07:44:16.107Z,4.00
2022-12-28T07:45:16.052Z,4.01
2022-12-28T07:46:16.091Z,4.01
2022-12-28T07:47:16.019Z,4.00
2022-12-28T07:48:15.998Z,4.03
2022-12-28T07:49:15.971Z,4.01
2022-12-28T07:50:16.077Z,4.06
2022-12-28T07:51:15.941Z,4.03
2022-12-28T07:52:15.980Z,4.04
2022-12-28T07:53:21.848Z,4.01
2022-12-28T07:54:15.932Z,4.04
2022-12-28T07:55:15.967Z,4.04
2022-12-28T07:56:15.903Z,4.07
2022-12-28T07:57:15.932Z,4.04
2022-12-28T07:58:15.919Z,4.06
2022-12-28T07:59:15.861Z,4.04
2022-12-28T08:00:15.886Z,4.07
2022-12-28T08:01:15.938Z,4.08
2022-12-28T08:02:16.054Z,4.10
2022-12-28T08:03:15.873Z,4.10
2022-12-28T08:04:15.819Z,4.10
2022-12-28T08:05:15.842Z,4.12
2022-12-28T08:06:15.867Z,4.10
2022-12-28T08:07:15.790Z,4.14
2022-12-28T08:08:15.768Z,4.12
2022-12-28T08:09:15.779Z,4.12
2022-12-28T08:10:15.787Z,4.14
2022-12-28T08:11:15.772Z,4.16
2022-12-28T08:12:15.774Z,4.16
2022-12-28T08:13:15.764Z,4.15
2022-12-28T08:14:15.724Z,4.16
2022-12-28T08:15:15.751Z,4.14
2022-12-28T08:16:15.734Z,4.14
2022-12-28T08:17:20.771Z,4.14
2022-12-28T08:18:15.688Z,4.14
2022-12-28T08:19:15.636Z,4.15
2022-12-28T08:20:15.670Z,4.16
2022-12-28T08:21:15.640Z,4.16
2022-12-28T08:22:15.610Z,4.15
2022-12-28T08:23:15.619Z,4.21
2022-12-28T08:24:15.631Z,4.18
2022-12-28T08:25:15.701Z,4.26
2022-12-28T08:26:15.604Z,4.29
2022-12-28T08:27:15.546Z,4.33
2022-12-28T08:28:15.801Z,4.34
2022-12-28T08:29:15.538Z,4.34
2022-12-28T08:30:15.535Z,4.33
2022-12-28T08:31:15.593Z,4.34
2022-12-28T08:32:15.510Z,4.33
2022-12-28T08:33:15.489Z,4.33
2022-12-28T08:34:15.508Z,4.33
2022-12-28T08:35:15.476Z,4.34
2022-12-28T08:36:15.479Z,4.37
2022-12-28T08:37:15.449Z,4.37
2022-12-28T08:38:15.491Z,4.36
2022-12-28T08:39:15.432Z,4.39
2022-12-28T08:40:15.437Z,4.43
2022-12-28T08:41:15.422Z,4.44
2022-12-28T08:42:15.408Z,4.46
2022-12-28T08:43:15.421Z,4.50
2022-12-28T08:44:15.537Z,4.50
2022-12-28T08:45:15.359Z,4.54
2022-12-28T08:46:16.041Z,4.54
2022-12-28T08:47:15.446Z,4.57
2022-12-28T08:48:15.345Z,4.59
2022-12-28T08:49:15.321Z,4.59
2022-12-28T08:50:19.795Z,4.61
2022-12-28T08:51:15.757Z,4.61
2022-12-28T08:52:15.324Z,4.65
2022-12-28T08:53:15.305Z,4.70
2022-12-28T08:54:15.283Z,4.67
2022-12-28T08:55:15.256Z,4.70
2022-12-28T08:56:15.252Z,4.75
2022-12-28T08:57:15.245Z,4.77
2022-12-28T08:58:15.225Z,4.77
2022-12-28T08:59:15.247Z,4.83
2022-12-28T09:00:15.201Z,4.84
2022-12-28T09:01:15.274Z,4.89
2022-12-28T09:02:15.299Z,4.86
2022-12-28T09:03:15.354Z,4.89
2022-12-28T09:04:15.256Z,4.94
2022-12-28T09:05:15.165Z,4.96
2022-12-28T09:06:15.206Z,4.99
2022-12-28T09:07:15.115Z,5.05
2022-12-28T09:08:15.109Z,5.05
2022-12-28T09:09:15.111Z,5.05
2022-12-28T09:10:15.161Z,5.04
2022-12-28T09:11:15.092Z,5.02
2022-12-28T09:12:15.079Z,5.07
2022-12-28T09:13:15.083Z,5.05
2022-12-28T09:14:22.531Z,5.09
2022-12-28T09:15:15.062Z,5.10
2022-12-28T09:16:15.267Z,5.07
2022-12-28T09:17:15.035Z,5.09
2022-12-28T09:18:15.021Z,5.10
2022-12-28T09:19:14.988Z,5.05
2022-12-28T09:20:14.994Z,5.07
2022-12-28T09:21:14.968Z,5.09
2022-12-28T09:22:15.017Z,5.04
2022-12-28T09:23:14.985Z,5.09
2022-12-28T09:24:14.934Z,5.07
2022-12-28T09:25:14.929Z,5.10
2022-12-28T09:26:14.940Z,5.13
2022-12-28T09:27:14.920Z,5.17
2022-12-28T09:28:14.922Z,5.17
2022-12-28T09:29:14.896Z,5.17
2022-12-28T09:30:14.871Z,5.19
2022-12-28T09:31:15.053Z,5.20
2022-12-28T09:32:14.894Z,5.22
2022-12-28T09:33:14.885Z,5.20
2022-12-28T09:35:14.824Z,5.19
2022-12-28T09:36:14.869Z,5.16
2022-12-28T09:37:14.801Z,5.20
2022-12-28T09:38:14.820Z,5.17
2022-12-28T09:39:14.914Z,5.17
2022-12-28T09:40:14.763Z,5.19
2022-12-28T09:41:14.755Z,5.23
2022-12-28T09:42:14.746Z,5.23
2022-12-28T09:43:14.746Z,5.23
2022-12-28T09:44:14.730Z,5.25
2022-12-28T09:45:14.708Z,5.23
2022-12-28T09:46:14.763Z,5.30
2022-12-28T09:47:14.689Z,5.30
2022-12-28T09:48:14.677Z,5.31
2022-12-28T09:49:14.685Z,5.30
2022-12-28T09:50:14.657Z,5.32
2022-12-28T09:51:14.657Z,5.35
2022-12-28T09:52:14.665Z,5.35
2022-12-28T09:53:14.674Z,5.40
2022-12-28T09:54:14.652Z,5.43
2022-12-28T09:55:14.602Z,5.48
2022-12-28T09:56:14.644Z,5.55
2022-12-28T09:57:14.594Z,5.52
2022-12-28T09:58:14.599Z,5.49
2022-12-28T09:59:14.576Z,5.52
2022-12-28T10:00:14.638Z,5.52
2022-12-28T10:01:14.664Z,5.53
2022-12-28T10:02:14.573Z,5.53
2022-12-28T10:03:14.595Z,5.55
2022-12-28T10:04:14.534Z,5.53
2022-12-28T10:05:14.493Z,5.57
2022-12-28T10:06:14.499Z,5.57
2022-12-28T10:07:14.483Z,5.64
2022-12-28T10:08:14.516Z,5.60
2022-12-28T10:09:14.475Z,5.67
2022-12-28T10:10:14.457Z,5.63
2022-12-28T10:11:14.426Z,5.68
2022-12-28T10:12:14.435Z,5.71
2022-12-28T10:13:45.434Z,5.71
2022-12-28T10:14:14.404Z,5.71
2022-12-28T10:15:14.405Z,5.73
2022-12-28T10:16:14.440Z,5.71
2022-12-28T10:17:14.395Z,5.71
2022-12-28T10:18:14.371Z,5.71
2022-12-28T10:19:15.398Z,5.74
2022-12-28T10:20:14.355Z,5.73
2022-12-28T10:21:14.346Z,5.75
2022-12-28T10:22:14.322Z,5.81
2022-12-28T10:23:14.323Z,5.81
2022-12-28T10:24:31.372Z,5.82
2022-12-28T10:25:14.315Z,5.82
2022-12-28T10:26:14.282Z,5.82
2022-12-28T10:27:14.270Z,5.81
2022-12-28T10:28:14.245Z,5.83
2022-12-28T10:29:14.247Z,5.85
2022-12-28T10:30:14.246Z,5.85
2022-12-28T10:31:14.314Z,5.88
2022-12-28T10:32:14.222Z,5.92
2022-12-28T10:33:14.252Z,5.91
2022-12-28T10:34:14.182Z,6.00
2022-12-28T10:35:14.177Z,6.00
2022-12-28T10:36:14.220Z,5.98
2022-12-28T10:37:15.463Z,5.98
2022-12-28T10:38:14.136Z,5.98
2022-12-28T10:39:14.188Z,5.96
2022-12-28T10:40:14.130Z,5.95
2022-12-28T10:41:14.111Z,5.95
2022-12-28T10:42:14.123Z,5.93
2022-12-28T10:43:14.095Z,5.95
2022-12-28T10:44:38.510Z,6.00
2022-12-28T10:45:14.113Z,6.00
2022-12-28T10:46:14.254Z,5.96
2022-12-28T10:47:14.079Z,5.93
2022-12-28T10:48:14.063Z,5.95
2022-12-28T10:49:15.846Z,5.93
2022-12-28T10:51:14.063Z,5.95
2022-12-28T10:52:13.995Z,5.93
2022-12-28T10:53:13.981Z,5.95
2022-12-28T10:54:14.006Z,5.96
2022-12-28T10:55:13.973Z,6.01
2022-12-28T10:56:13.987Z,6.01
2022-12-28T10:57:13.924Z,6.00
2022-12-28T10:58:31.172Z,6.03
2022-12-28T10:59:13.943Z,6.04
2022-12-28T11:00:13.931Z,6.04
2022-12-28T11:01:14.046Z,6.09
2022-12-28T11:02:14.044Z,6.10
2022-12-28T11:03:13.989Z,6.13
2022-12-28T11:04:13.877Z,6.13
2022-12-28T11:05:13.867Z,6.13
2022-12-28T11:06:13.861Z,6.19
2022-12-28T11:07:13.878Z,6.22
2022-12-28T11:08:13.813Z,6.25
2022-12-28T11:09:13.797Z,6.30
2022-12-28T11:10:13.806Z,6.32
2022-12-28T11:11:13.799Z,6.38
2022-12-28T11:12:13.780Z,6.38
2022-12-28T11:13:18.360Z,6.41
2022-12-28T11:14:13.761Z,6.44
2022-12-28T11:15:13.775Z,6.47
2022-12-28T11:16:13.830Z,6.50
2022-12-28T11:17:13.744Z,6.48
2022-12-28T11:18:13.723Z,6.51
2022-12-28T11:19:13.701Z,6.54
2022-12-28T11:20:13.701Z,6.56
2022-12-28T11:21:13.687Z,6.54
2022-12-28T11:22:13.791Z,6.53
2022-12-28T11:23:13.643Z,6.53
2022-12-28T11:24:13.634Z,6.53
2022-12-28T11:25:13.645Z,6.54
2022-12-28T11:26:13.617Z,6.56
2022-12-28T11:27:13.635Z,6.58
2022-12-28T11:28:13.631Z,6.59
2022-12-28T11:29:13.583Z,6.65
2022-12-28T11:30:17.260Z,6.63
2022-12-28T11:31:13.646Z,6.66
2022-12-28T11:32:13.565Z,6.68
2022-12-28T11:33:13.553Z,6.71
2022-12-28T11:34:13.548Z,6.72
2022-12-28T11:35:13.522Z,6.77
2022-12-28T11:36:13.542Z,6.81
2022-12-28T11:37:13.508Z,6.83
2022-12-28T11:38:13.490Z,6.87
2022-12-28T11:39:13.529Z,6.84
2022-12-28T11:40:13.508Z,6.89
2022-12-28T11:41:13.454Z,6.97
2022-12-28T11:42:39.141Z,6.98
2022-12-28T11:43:13.440Z,6.98
2022-12-28T11:44:13.422Z,6.99
2022-12-28T11:45:13.416Z,6.99
2022-12-28T11:46:13.449Z,7.02
2022-12-28T11:47:13.378Z,7.01
2022-12-28T11:48:13.406Z,6.99
2022-12-28T11:49:13.383Z,7.02
2022-12-28T11:50:13.351Z,6.99
2022-12-28T11:51:13.405Z,7.05
2022-12-28T11:52:13.360Z,7.07
2022-12-28T11:53:14.085Z,7.07
2022-12-28T11:54:13.321Z,7.12
2022-12-28T11:55:13.308Z,7.13
2022-12-28T11:56:13.291Z,7.12
2022-12-28T11:57:13.273Z,7.13
2022-12-28T11:58:13.279Z,7.09
2022-12-28T11:59:13.273Z,7.09
2022-12-28T12:00:18.441Z,7.12
2022-12-28T12:01:13.342Z,7.08
2022-12-28T12:02:13.239Z,7.09
2022-12-28T12:03:13.275Z,7.12
2022-12-28T12:04:13.209Z,7.08
2022-12-28T12:05:13.187Z,7.05
2022-12-28T12:06:13.169Z,7.08
2022-12-28T12:07:13.171Z,7.07
2022-12-28T12:08:13.164Z,7.09
2022-12-28T12:09:13.152Z,7.08
2022-12-28T12:10:13.163Z,7.09
2022-12-28T12:11:13.125Z,7.08
2022-12-28T12:12:17.869Z,7.08
2022-12-28T12:13:13.107Z,7.09
2022-12-28T12:14:13.123Z,7.08
2022-12-28T12:15:13.086Z,7.08
2022-12-28T12:16:13.094Z,7.12
2022-12-28T12:17:13.065Z,7.13
2022-12-28T12:18:13.052Z,7.13
2022-12-28T12:19:13.055Z,7.17
2022-12-28T12:20:13.090Z,7.19
2022-12-28T12:21:16.039Z,7.20
2022-12-28T12:22:12.997Z,7.24
2022-12-28T12:23:13.015Z,7.34
2022-12-28T12:24:13.028Z,7.42
2022-12-28T12:25:12.989Z,7.53
2022-12-28T12:26:12.961Z,8.07
2022-12-28T12:27:13.569Z,8.11
2022-12-28T12:28:12.941Z,8.04
2022-12-28T12:29:12.957Z,8.11
2022-12-28T12:30:12.998Z,8.21
2022-12-28T12:31:12.950Z,8.12
2022-12-28T12:32:12.896Z,8.03
2022-12-28T12:33:12.904Z,8.00
2022-12-28T12:34:17.673Z,7.96
2022-12-28T12:35:12.987Z,7.96
2022-12-28T12:36:12.855Z,7.85
2022-12-28T12:37:12.855Z,7.82
2022-12-28T12:38:12.944Z,7.79
2022-12-28T12:39:12.833Z,7.82
2022-12-28T12:40:12.807Z,7.78
2022-12-28T12:41:12.820Z,7.79
2022-12-28T12:42:12.803Z,7.77
2022-12-28T12:43:12.773Z,7.79
2022-12-28T12:44:12.768Z,7.79
2022-12-28T12:45:12.780Z,7.75
2022-12-28T12:46:12.805Z,7.84
2022-12-28T12:47:12.791Z,7.79
2022-12-28T12:48:12.754Z,7.81
2022-12-28T12:49:12.743Z,7.84
2022-12-28T12:50:12.737Z,7.82
2022-12-28T12:51:12.692Z,7.87
2022-12-28T12:52:12.672Z,7.93
2022-12-28T12:53:12.665Z,7.93
2022-12-28T12:54:12.681Z,8.00
2022-12-28T12:55:12.680Z,8.07
2022-12-28T12:56:12.656Z,8.11
2022-12-28T12:57:12.629Z,8.14
2022-12-28T12:58:12.606Z,8.17
2022-12-28T12:59:12.611Z,8.12
2022-12-28T13:00:12.655Z,8.15
2022-12-28T13:01:12.679Z,8.17
2022-12-28T13:02:12.749Z,8.25
2022-12-28T13:03:12.594Z,8.26
2022-12-28T13:04:12.536Z,8.33
2022-12-28T13:05:12.539Z,8.35
2022-12-28T13:06:12.524Z,8.40
2022-12-28T13:07:12.522Z,8.37
2022-12-28T13:08:12.504Z,8.36
2022-12-28T13:09:12.559Z,8.39
2022-12-28T13:10:12.514Z,8.42
2022-12-28T13:11:12.519Z,8.39
2022-12-28T13:12:12.453Z,8.47
2022-12-28T13:13:12.448Z,8.42
2022-12-28T13:14:12.429Z,8.39
2022-12-28T13:15:13.107Z,8.39
2022-12-28T13:16:12.473Z,8.39
2022-12-28T13:17:12.403Z,8.35
2022-12-28T13:18:43.622Z,8.35
2022-12-28T13:19:12.424Z,8.36
2022-12-28T13:20:12.431Z,8.36
2022-12-28T13:21:13.107Z,8.35